createdAt,value
2023-02-04T00:00:57.972Z,98299.44
2023-02-04T00:06:00.219Z,98768.22
2023-02-04T00:11:05.804Z,98354.88
2023-02-04T00:16:08.162Z,98147.97
2023-02-04T00:21:10.380Z,98774.19
2023-02-04T00:26:12.708Z,98200.63
2023-02-04T00:31:15.042Z,98284.28
2023-02-04T00:36:17.778Z,98703.81
2023-02-04T00:41:20.068Z,98627.03
2023-02-04T00:46:22.281Z,98560.41
2023-02-04T00:51:24.574Z,98729.00
2023-02-04T00:56:26.813Z,98548.19
2023-02-04T01:01:29.540Z,98737.34
2023-02-04T01:06:32.088Z,98765.31
2023-02-04T01:11:34.692Z,98755.72
2023-02-04T01:16:37.121Z,98736.50
2023-02-04T01:21:40.957Z,98362.22
2023-02-04T01:26:43.345Z,98705.56
2023-02-04T01:31:46.494Z,98619.31
2023-02-04T01:36:48.793Z,98234.66
2023-02-04T01:41:52.351Z,98741.72
2023-02-04T01:46:54.812Z,98788.03
2023-02-04T01:51:57.402Z,98601.06
2023-02-04T01:57:00.666Z,98785.25
2023-02-04T02:02:02.974Z,98783.56
2023-02-04T02:07:05.948Z,98783.50
2023-02-04T02:12:08.273Z,98680.91
2023-02-04T02:17:10.606Z,98839.03
2023-02-04T02:22:26.596Z,98794.59
2023-02-04T02:27:28.980Z,98738.13
2023-02-04T02:32:33.652Z,98652.34
2023-02-04T02:37:35.959Z,98804.63
2023-02-04T02:42:38.556Z,98896.88
2023-02-04T02:47:40.847Z,98662.72
2023-02-04T02:52:43.096Z,98809.91
2023-02-04T02:57:46.851Z,98824.31
2023-02-04T03:02:56.533Z,98518.03
2023-02-04T03:07:59.494Z,98616.00
2023-02-04T03:13:01.902Z,98779.88
2023-02-04T03:18:05.603Z,98777.16
2023-02-04T03:23:08.368Z,98746.09
2023-02-04T03:28:11.332Z,98911.88
2023-02-04T03:33:15.401Z,98549.72
2023-02-04T03:38:19.884Z,98867.91
2023-02-04T03:43:22.433Z,98843.06
2023-02-04T03:48:24.628Z,98235.53
2023-02-04T03:53:26.831Z,98769.97
2023-02-04T03:58:29.260Z,98900.69
2023-02-04T04:03:31.506Z,98959.19
2023-02-04T04:08:34.679Z,98864.44
2023-02-04T04:13:36.834Z,98906.41
2023-02-04T04:18:39.046Z,98795.22
2023-02-04T04:23:41.274Z,98908.59
2023-02-04T04:28:43.621Z,98771.41
2023-02-04T04:33:45.861Z,98794.84
2023-02-04T04:38:48.094Z,98544.31
2023-02-04T04:43:50.258Z,98915.84
2023-02-04T04:48:53.036Z,98079.81
2023-02-04T04:53:55.236Z,98548.97
2023-02-04T04:58:57.534Z,99008.16
2023-02-04T05:03:59.966Z,98504.38
2023-02-04T05:09:02.241Z,98587.50
2023-02-04T05:14:04.442Z,98358.50
2023-02-04T05:19:06.718Z,99057.06
2023-02-04T05:24:08.933Z,99033.09
2023-02-04T05:29:11.231Z,98926.59
2023-02-04T05:34:13.513Z,99031.34
2023-02-04T05:39:15.716Z,98903.94
2023-02-04T05:44:18.024Z,99069.19
2023-02-04T05:49:20.290Z,98959.19
2023-02-04T05:54:22.723Z,98698.63
2023-02-04T05:59:25.067Z,98718.50
2023-02-04T06:04:27.442Z,98850.91
2023-02-04T06:09:29.747Z,98712.88
2023-02-04T06:14:31.994Z,99020.59
2023-02-04T06:19:34.176Z,98962.84
2023-02-04T06:24:37.178Z,99011.19
2023-02-04T06:29:39.363Z,98917.44
2023-02-04T06:34:41.917Z,98945.16
2023-02-04T06:39:44.731Z,99103.97
2023-02-04T06:44:47.268Z,99133.84
2023-02-04T06:49:49.455Z,99069.78
2023-02-04T06:54:51.712Z,99036.59
2023-02-04T06:59:53.931Z,98950.66
2023-02-04T07:04:56.161Z,99040.63
2023-02-04T07:09:58.366Z,98707.44
2023-02-04T07:15:00.753Z,99076.13
2023-02-04T07:32:41.449Z,98720.88
2023-02-04T07:37:43.682Z,99177.84
2023-02-04T07:42:45.925Z,99081.84
2023-02-04T07:47:52.794Z,98710.09
2023-02-04T07:52:55.069Z,98861.75
2023-02-04T07:57:57.480Z,99168.38
2023-02-04T08:02:59.818Z,99175.91
2023-02-04T08:08:02.395Z,99147.31
2023-02-04T08:13:04.593Z,98448.41
2023-02-04T08:18:06.958Z,99211.06
2023-02-04T08:23:11.058Z,98959.69
2023-02-04T08:28:19.309Z,98951.59
2023-02-04T08:33:27.615Z,98906.94
2023-02-04T08:38:29.888Z,99017.38
2023-02-04T08:43:32.239Z,99005.38
2023-02-04T08:48:34.663Z,99205.34
2023-02-04T08:53:37.963Z,98789.88
2023-02-04T08:58:43.017Z,99162.59
2023-02-04T09:03:45.297Z,99235.84
2023-02-04T09:08:47.557Z,98510.25
2023-02-04T09:13:49.990Z,99154.44
2023-02-04T09:18:52.251Z,99125.25
2023-02-04T09:23:55.142Z,99257.53
2023-02-04T09:28:57.389Z,99065.81
2023-02-04T09:34:00.394Z,99256.00
2023-02-04T09:39:05.100Z,99101.84
2023-02-04T09:44:14.877Z,98342.34
2023-02-04T09:49:21.476Z,98869.38
2023-02-04T09:54:24.542Z,99093.72
2023-02-04T09:59:29.742Z,99196.94
2023-02-04T10:04:32.421Z,99280.13
2023-02-04T10:09:34.840Z,99289.59
2023-02-04T10:14:37.089Z,98688.69
2023-02-04T10:19:39.716Z,99300.50
2023-02-04T10:24:41.937Z,99142.28
2023-02-04T10:29:56.664Z,98990.91
2023-02-04T10:35:00.955Z,98907.50
2023-02-04T10:40:06.098Z,99182.66
2023-02-04T10:45:31.054Z,98914.91
2023-02-04T10:50:33.929Z,98911.13
2023-02-04T10:55:36.455Z,99106.69
2023-02-04T11:00:41.216Z,98873.50
2023-02-04T11:05:43.565Z,99263.44
2023-02-04T11:10:45.965Z,98864.13
2023-02-04T11:15:51.095Z,99330.53
2023-02-04T11:20:58.723Z,99068.47
2023-02-04T11:26:19.481Z,99342.03
2023-02-04T11:31:21.756Z,99338.44
2023-02-04T11:36:24.179Z,98930.94
2023-02-04T11:41:31.077Z,99269.81
2023-02-04T11:46:33.415Z,99217.59
2023-02-04T11:51:35.686Z,99239.78
2023-02-04T11:56:38.022Z,99366.03
2023-02-04T12:01:40.538Z,99378.88
2023-02-04T12:06:42.935Z,98873.16
2023-02-04T12:11:59.395Z,99369.50
2023-02-04T12:17:02.209Z,98770.28
2023-02-04T12:22:04.508Z,99061.72
2023-02-04T12:27:06.872Z,98977.59
2023-02-04T12:32:10.463Z,98835.53
2023-02-04T12:37:13.048Z,98654.94
2023-02-04T12:48:01.353Z,99232.19
2023-02-04T12:53:04.370Z,99405.47
2023-02-04T12:58:06.596Z,99406.13
2023-02-04T13:03:08.791Z,99414.84
2023-02-04T13:08:11.131Z,99434.94
2023-02-04T13:13:13.356Z,99426.88
2023-02-04T13:18:17.460Z,99446.03
2023-02-04T13:23:20.128Z,99414.22
2023-02-04T13:28:22.225Z,99449.50
2023-02-04T13:33:24.409Z,99456.25
2023-02-04T13:38:26.768Z,99435.00
2023-02-04T13:43:28.953Z,99448.06
2023-02-04T13:48:31.225Z,99454.91
2023-02-04T13:53:34.764Z,99447.59
2023-02-04T13:58:37.037Z,99483.50
2023-02-04T14:03:39.590Z,99486.06
2023-02-04T14:08:44.290Z,99482.34
2023-02-04T14:13:46.406Z,99501.34
2023-02-04T14:18:48.668Z,99470.16
2023-02-04T14:23:50.815Z,99523.44
2023-02-04T14:28:53.088Z,99526.88
2023-02-04T14:33:56.479Z,99500.44
2023-02-04T14:38:58.632Z,99537.00
2023-02-04T14:44:00.828Z,99529.25
2023-02-04T14:49:03.190Z,99521.69
2023-02-04T14:54:05.472Z,99547.78
2023-02-04T14:59:07.766Z,99552.00
2023-02-04T15:04:12.024Z,99522.78
2023-02-04T15:09:14.318Z,99553.94
2023-02-04T15:14:17.075Z,99569.94
2023-02-04T15:19:20.580Z,99571.53
2023-02-04T15:24:23.202Z,99578.38
2023-02-04T15:29:25.509Z,99580.00
2023-02-04T15:34:27.747Z,99577.22
2023-02-04T15:39:29.908Z,99584.13
2023-02-04T15:44:32.117Z,99573.91
2023-02-04T15:49:35.203Z,99602.75
2023-02-04T15:54:38.171Z,99553.97
2023-02-04T15:59:40.309Z,99579.28
2023-02-04T16:04:45.531Z,99618.81
2023-02-04T16:09:49.978Z,99615.16
2023-02-04T16:14:52.159Z,99627.34
2023-02-04T16:19:54.379Z,99619.84
2023-02-04T16:24:58.272Z,99630.13
2023-02-04T16:30:00.981Z,99652.06
2023-02-04T16:35:04.704Z,99624.66
2023-02-04T16:40:07.624Z,99641.25
2023-02-04T16:45:10.088Z,99617.34
2023-02-04T16:50:15.725Z,99671.41
2023-02-04T16:55:17.985Z,99628.91
2023-02-04T17:00:20.697Z,99666.94
2023-02-04T17:05:23.052Z,99637.72
2023-02-04T17:10:44.508Z,99669.06
2023-02-04T17:15:46.776Z,99689.91
2023-02-04T17:20:48.961Z,99694.13
2023-02-04T17:25:51.137Z,99667.63
2023-02-04T17:30:53.405Z,99699.22
2023-02-04T17:35:57.491Z,99696.91
2023-02-04T17:41:01.422Z,99698.81
2023-02-04T17:46:03.912Z,99699.63
2023-02-04T17:51:07.829Z,99691.47
2023-02-04T17:56:14.551Z,99724.66
2023-02-04T18:01:19.060Z,99691.00
2023-02-04T18:06:29.478Z,99717.44
2023-02-04T18:11:37.031Z,99688.28
2023-02-04T18:16:42.788Z,99725.28
2023-02-04T18:21:45.626Z,99680.28
2023-02-04T18:26:52.592Z,99733.78
2023-02-04T18:32:04.348Z,99738.94
2023-02-04T18:37:26.733Z,99748.41
2023-02-04T18:42:28.984Z,99747.13
2023-02-04T18:47:38.772Z,99745.81
2023-02-04T18:52:41.348Z,99697.94
2023-02-04T18:57:43.755Z,99771.59
2023-02-04T19:02:59.076Z,99760.44
2023-02-04T19:08:04.384Z,99777.59
2023-02-04T19:13:40.154Z,99761.72
2023-02-04T19:18:42.842Z,99779.19
2023-02-04T19:23:45.136Z,99769.34
2023-02-04T19:28:49.513Z,99781.38
2023-02-04T19:33:53.707Z,99793.06
2023-02-04T19:38:59.752Z,99793.00
2023-02-04T19:44:14.121Z,99791.41
2023-02-04T19:49:24.516Z,99779.44
2023-02-04T19:54:38.750Z,99815.28
2023-02-04T19:59:41.059Z,99809.50
2023-02-04T20:04:53.747Z,99826.97
2023-02-04T20:10:02.628Z,99808.34
2023-02-04T20:15:18.550Z,99837.72
2023-02-04T20:20:24.048Z,99835.22
2023-02-04T20:25:39.570Z,99844.75
2023-02-04T20:30:41.825Z,99808.25
2023-02-04T20:35:53.286Z,99849.75
2023-02-04T20:40:55.767Z,99844.44
2023-02-04T20:46:07.233Z,99809.31
2023-02-04T20:51:36.041Z,99850.72
2023-02-04T20:56:41.145Z,99856.22
2023-02-04T21:01:49.049Z,99847.63
2023-02-04T21:06:53.210Z,99855.25
2023-02-04T21:11:56.283Z,99863.75
2023-02-04T21:16:58.361Z,99832.84
2023-02-04T21:22:00.455Z,99870.47
2023-02-04T21:27:02.673Z,99869.25
2023-02-04T21:32:07.315Z,99879.84
2023-02-04T21:37:09.576Z,99874.28
2023-02-04T21:42:11.850Z,99887.56
2023-02-04T21:47:15.869Z,99870.50
2023-02-04T21:52:18.202Z,99899.22
2023-02-04T21:57:20.308Z,99885.72
2023-02-04T22:02:24.046Z,99905.59
2023-02-04T22:07:26.263Z,99921.50
2023-02-04T22:12:28.559Z,99917.63
2023-02-04T22:17:30.897Z,99898.19
2023-02-04T22:22:33.776Z,99935.13
2023-02-04T22:27:35.896Z,99910.16
2023-02-04T22:32:38.733Z,99944.31
2023-02-04T22:37:41.865Z,99921.09
2023-02-04T22:42:43.992Z,99908.47
2023-02-04T22:47:46.152Z,99919.53
2023-02-04T22:52:48.248Z,99935.41
2023-02-04T22:57:50.403Z,99932.66
2023-02-04T23:02:52.556Z,99949.47
2023-02-04T23:07:54.685Z,99965.84
2023-02-04T23:12:56.812Z,99971.84
2023-02-04T23:17:58.934Z,99959.81
2023-02-04T23:23:01.193Z,99964.53
2023-02-04T23:28:03.893Z,99991.47
2023-02-04T23:33:06.057Z,99943.72
2023-02-04T23:38:08.205Z,99963.69
2023-02-04T23:43:10.952Z,99981.09
2023-02-04T23:48:13.201Z,99997.66
2023-02-04T23:53:15.316Z,99970.06
2023-02-04T23:58:17.927Z,99977.81
